createdAt,value
2018-11-05T00:00:28.263Z,22.10
2018-11-05T00:01:28.276Z,23.00
2018-11-05T00:02:28.288Z,22.20
2018-11-05T00:03:28.306Z,22.20
2018-11-05T00:04:28.313Z,22.10
2018-11-05T00:05:28.329Z,23.00
2018-11-05T00:06:28.340Z,22.50
2018-11-05T00:07:28.352Z,23.10
2018-11-05T00:08:28.368Z,23.00
2018-11-05T00:09:28.380Z,23.20
2018-11-05T00:10:28.389Z,22.10
2018-11-05T00:11:28.405Z,21.50
2018-11-05T00:12:28.418Z,23.50
2018-11-05T00:13:28.434Z,22.40
2018-11-05T00:14:28.444Z,24.00
2018-11-05T00:15:28.475Z,23.10
2018-11-05T00:16:28.472Z,23.50
2018-11-05T00:17:28.485Z,23.70
2018-11-05T00:18:28.508Z,23.40
2018-11-05T00:19:28.517Z,23.00
2018-11-05T00:20:28.528Z,22.80
2018-11-05T00:21:28.542Z,24.50
2018-11-05T00:22:28.548Z,24.00
2018-11-05T00:23:28.564Z,22.80
2018-11-05T00:24:28.574Z,24.70
2018-11-05T00:25:28.587Z,23.70
2018-11-05T00:26:28.604Z,23.90
2018-11-05T00:27:28.616Z,24.20
2018-11-05T00:28:28.628Z,25.00
2018-11-05T00:29:28.644Z,25.50
2018-11-05T00:30:28.652Z,25.40
2018-11-05T00:31:28.668Z,25.10
2018-11-05T00:32:28.681Z,24.80
2018-11-05T00:33:28.696Z,24.80
2018-11-05T00:34:28.703Z,24.20
2018-11-05T00:35:28.719Z,25.00
2018-11-05T00:36:28.738Z,25.50
2018-11-05T00:37:28.746Z,25.10
2018-11-05T00:38:28.760Z,24.90
2018-11-05T00:39:28.774Z,26.10
2018-11-05T00:40:28.783Z,25.20
2018-11-05T00:41:28.800Z,25.90
2018-11-05T00:42:28.823Z,24.60
2018-11-05T00:43:28.825Z,26.10
2018-11-05T00:44:28.842Z,24.40
2018-11-05T00:45:28.883Z,26.10
2018-11-05T00:46:28.872Z,26.40
2018-11-05T00:47:28.881Z,26.80
2018-11-05T00:48:28.890Z,25.80
2018-11-05T00:49:28.906Z,26.90
2018-11-05T00:50:28.916Z,25.40
2018-11-05T00:51:28.933Z,25.70
2018-11-05T00:52:28.945Z,26.20
2018-11-05T00:53:28.956Z,24.80
2018-11-05T00:54:28.968Z,24.90
2018-11-05T00:55:28.988Z,25.00
2018-11-05T00:56:28.991Z,24.40
2018-11-05T00:57:29.010Z,23.50
2018-11-05T00:58:29.205Z,22.50
2018-11-05T00:59:29.033Z,23.40
2018-11-05T01:00:29.045Z,22.20
2018-11-05T01:01:29.062Z,22.10
2018-11-05T01:02:29.074Z,21.50
2018-11-05T01:03:29.088Z,21.10
2018-11-05T01:04:29.102Z,22.20
2018-11-05T01:05:29.113Z,21.50
2018-11-05T01:06:29.127Z,22.60
2018-11-05T01:07:29.140Z,21.50
2018-11-05T01:08:29.155Z,22.40
2018-11-05T01:09:29.164Z,21.90
2018-11-05T01:10:29.176Z,22.00
2018-11-05T01:11:29.192Z,24.50
2018-11-05T01:12:29.207Z,24.20
2018-11-05T01:13:29.215Z,25.90
2018-11-05T01:14:29.230Z,25.70
2018-11-05T01:15:29.241Z,25.20
2018-11-05T01:16:29.256Z,24.60
2018-11-05T01:17:29.268Z,25.30
2018-11-05T01:18:29.279Z,25.00
2018-11-05T01:19:29.295Z,24.80
2018-11-05T01:20:29.308Z,24.40
2018-11-05T01:21:29.321Z,24.30
2018-11-05T01:22:29.334Z,23.80
2018-11-05T01:23:29.351Z,23.90
2018-11-05T01:24:29.366Z,23.80
2018-11-05T01:25:29.374Z,22.90
2018-11-05T01:26:29.386Z,23.20
2018-11-05T01:27:29.400Z,23.60
2018-11-05T01:28:29.415Z,23.80
2018-11-05T01:29:29.430Z,24.70
2018-11-05T01:30:29.440Z,24.20
2018-11-05T01:31:29.461Z,23.70
2018-11-05T01:32:29.467Z,23.50
2018-11-05T01:33:29.481Z,22.60
2018-11-05T01:34:29.488Z,22.70
2018-11-05T01:35:29.505Z,23.00
2018-11-05T01:36:29.517Z,22.60
2018-11-05T01:37:29.537Z,23.30
2018-11-05T01:38:29.542Z,23.90
2018-11-05T01:39:29.557Z,23.60
2018-11-05T01:40:29.572Z,23.50
2018-11-05T01:41:29.588Z,23.70
2018-11-05T01:42:29.595Z,22.70
2018-11-05T01:43:29.609Z,22.50
2018-11-05T01:44:29.649Z,21.40
2018-11-05T01:45:29.632Z,21.70
2018-11-05T01:46:29.649Z,21.00
2018-11-05T01:47:29.662Z,21.50
2018-11-05T01:48:29.671Z,21.00
2018-11-05T01:49:29.684Z,20.30
2018-11-05T01:50:29.698Z,20.40
2018-11-05T01:51:29.712Z,20.00
2018-11-05T01:52:29.725Z,20.50
2018-11-05T01:53:29.738Z,21.10
2018-11-05T01:54:29.752Z,20.80
2018-11-05T01:55:29.765Z,21.10
2018-11-05T01:56:29.778Z,21.70
2018-11-05T01:57:29.799Z,21.20
2018-11-05T01:58:29.801Z,22.20
2018-11-05T01:59:29.817Z,22.70
2018-11-05T02:00:29.830Z,22.20
2018-11-05T02:01:29.843Z,22.40
2018-11-05T02:02:29.854Z,24.30
2018-11-05T02:03:29.872Z,23.20
2018-11-05T02:04:29.881Z,23.70
2018-11-05T02:05:29.896Z,22.90
2018-11-05T02:06:29.906Z,21.70
2018-11-05T02:07:29.927Z,21.40
2018-11-05T02:08:29.936Z,21.60
2018-11-05T02:09:29.945Z,21.90
2018-11-05T02:10:29.984Z,22.40
2018-11-05T02:11:29.975Z,21.80
2018-11-05T02:12:29.987Z,22.10
2018-11-05T02:13:30.041Z,22.20
2018-11-05T02:14:30.014Z,21.10
2018-11-05T02:15:30.023Z,20.50
2018-11-05T02:16:30.046Z,21.40
2018-11-05T02:17:30.050Z,21.30
2018-11-05T02:18:30.060Z,20.20
2018-11-05T02:19:30.076Z,20.10
2018-11-05T02:20:30.088Z,20.70
2018-11-05T02:21:30.102Z,20.60
2018-11-05T02:22:30.117Z,20.10
2018-11-05T02:23:30.128Z,21.00
2018-11-05T02:24:30.143Z,20.20
2018-11-05T02:25:30.156Z,20.90
2018-11-05T02:26:30.165Z,20.90
2018-11-05T02:27:30.183Z,20.70
2018-11-05T02:28:30.203Z,21.10
2018-11-05T02:29:30.206Z,20.20
2018-11-05T02:30:30.221Z,20.40
2018-11-05T02:31:30.229Z,20.10
2018-11-05T02:32:30.249Z,20.40
2018-11-05T02:33:30.259Z,20.40
2018-11-05T02:34:30.274Z,21.20
2018-11-05T02:35:30.285Z,20.50
2018-11-05T02:36:30.296Z,19.60
2018-11-05T02:37:30.313Z,21.80
2018-11-05T02:38:30.327Z,21.10
2018-11-05T02:39:30.340Z,21.30
2018-11-05T02:40:30.350Z,21.40
2018-11-05T02:41:30.371Z,20.60
2018-11-05T02:42:30.379Z,21.10
2018-11-05T02:43:30.387Z,21.00
2018-11-05T02:44:30.418Z,21.30
2018-11-05T02:45:30.417Z,20.60
2018-11-05T02:46:30.428Z,21.20
2018-11-05T02:47:30.445Z,21.10
2018-11-05T02:48:30.468Z,20.50
2018-11-05T02:49:30.476Z,21.10
2018-11-05T02:50:30.480Z,21.10
2018-11-05T02:51:30.496Z,21.10
2018-11-05T02:52:30.507Z,21.10
2018-11-05T02:53:30.523Z,21.30
2018-11-05T02:54:30.531Z,20.90
2018-11-05T02:55:30.550Z,22.10
2018-11-05T02:56:30.558Z,21.70
2018-11-05T02:57:30.573Z,21.50
2018-11-05T02:58:30.585Z,22.30
2018-11-05T02:59:30.599Z,22.50
2018-11-05T03:00:30.615Z,21.90
2018-11-05T03:01:30.623Z,21.80
2018-11-05T03:02:30.638Z,22.30
2018-11-05T03:03:30.650Z,22.20
2018-11-05T03:04:30.667Z,22.70
2018-11-05T03:05:30.681Z,23.20
2018-11-05T03:06:30.689Z,22.40
2018-11-05T03:07:30.702Z,24.40
2018-11-05T03:08:30.721Z,24.20
2018-11-05T03:38:20.991Z,16.70
2018-11-05T03:39:20.974Z,24.20
2018-11-05T03:41:12.886Z,30.50
2018-11-05T03:42:12.881Z,29.40
2018-11-05T03:44:04.827Z,30.80
2018-11-05T03:45:04.805Z,29.90
2018-11-05T03:46:56.730Z,28.40
2018-11-05T03:47:56.736Z,28.30
2018-11-05T03:49:48.667Z,28.00
2018-11-05T03:50:48.648Z,26.70
2018-11-05T03:52:40.590Z,28.00
2018-11-05T03:53:40.569Z,27.50
2018-11-05T03:55:32.480Z,26.60
2018-11-05T03:56:32.525Z,26.10
2018-11-05T03:58:24.421Z,25.50
2018-11-05T03:59:24.409Z,25.40
2018-11-05T04:01:16.325Z,24.80
2018-11-05T04:02:16.336Z,25.10
2018-11-05T04:04:08.452Z,23.70
2018-11-05T04:05:08.452Z,24.10
2018-11-05T04:07:00.351Z,23.70
2018-11-05T04:08:00.354Z,23.50
2018-11-05T04:09:52.315Z,23.30
2018-11-05T04:10:52.283Z,23.90
2018-11-05T04:12:44.245Z,23.10
2018-11-05T04:13:44.218Z,22.40
2018-11-05T04:15:36.231Z,22.10
2018-11-05T04:16:36.141Z,22.90
2018-11-05T04:18:28.073Z,21.70
2018-11-05T04:19:28.063Z,22.20
2018-11-05T04:21:19.980Z,21.90
2018-11-05T04:22:19.986Z,22.20
2018-11-05T04:24:11.911Z,21.50
2018-11-05T04:25:11.900Z,21.00
2018-11-05T04:27:03.821Z,21.60
2018-11-05T04:28:03.831Z,21.10
2018-11-05T04:29:55.766Z,21.40
2018-11-05T04:30:55.749Z,21.80
2018-11-05T04:32:47.677Z,21.80
2018-11-05T04:33:47.665Z,21.60
2018-11-05T04:35:39.580Z,21.80
2018-11-05T04:36:39.580Z,23.50
2018-11-05T04:38:31.519Z,22.60
2018-11-05T04:39:31.511Z,23.20
2018-11-05T04:41:23.428Z,23.90
2018-11-05T04:42:23.445Z,22.70
2018-11-05T04:44:15.364Z,22.50
2018-11-05T04:45:15.344Z,22.60
2018-11-05T04:47:07.268Z,22.60
2018-11-05T04:48:07.263Z,22.00
2018-11-05T04:49:59.202Z,21.50
2018-11-05T04:50:59.183Z,20.90
2018-11-05T04:52:51.321Z,21.10
2018-11-05T04:53:51.306Z,20.30
2018-11-05T04:55:43.226Z,20.60
2018-11-05T04:56:43.229Z,20.80
2018-11-05T04:58:35.157Z,20.00
2018-11-05T04:59:35.152Z,20.50
2018-11-05T05:01:27.082Z,20.00
2018-11-05T05:02:27.089Z,20.40
2018-11-05T05:04:19.017Z,20.20
2018-11-05T05:05:19.066Z,20.30
2018-11-05T05:07:10.920Z,20.60
2018-11-05T05:08:10.925Z,20.60
2018-11-05T05:10:02.858Z,19.70
2018-11-05T05:11:02.845Z,20.60
2018-11-05T05:12:55.245Z,21.50
2018-11-05T05:13:55.259Z,20.90
2018-11-05T05:15:47.191Z,23.30
2018-11-05T05:16:47.180Z,23.10
2018-11-05T05:18:39.594Z,25.00
2018-11-05T05:19:39.582Z,23.70
2018-11-05T05:21:31.508Z,22.60
2018-11-05T05:22:31.598Z,22.20
2018-11-05T05:24:23.457Z,22.50
2018-11-05T05:25:23.444Z,22.00
2018-11-05T05:27:15.366Z,23.50
2018-11-05T05:28:15.371Z,22.40
2018-11-05T05:30:07.304Z,22.00
2018-11-05T05:31:07.293Z,22.30
2018-11-05T05:32:59.304Z,23.20
2018-11-05T05:33:59.212Z,21.80
2018-11-05T05:35:51.138Z,23.60
2018-11-05T05:36:51.124Z,22.40
2018-11-05T05:38:43.058Z,24.00
2018-11-05T05:39:43.046Z,22.30
2018-11-05T05:41:35.000Z,24.20
2018-11-05T05:42:34.983Z,23.60
2018-11-05T05:44:26.923Z,24.50
2018-11-05T05:45:26.905Z,23.50
2018-11-05T05:47:18.832Z,25.20
2018-11-05T05:48:18.837Z,25.70
2018-11-05T05:50:10.912Z,25.30
2018-11-05T05:51:10.765Z,25.20
2018-11-05T05:53:02.680Z,22.90
2018-11-05T05:54:02.680Z,24.10
2018-11-05T05:55:54.640Z,22.00
2018-11-05T05:56:54.628Z,21.50
2018-11-05T05:58:46.590Z,20.50
2018-11-05T05:59:46.634Z,20.30
2018-11-05T06:01:38.604Z,21.10
2018-11-05T06:02:38.612Z,20.20
2018-11-05T06:04:30.656Z,19.60
2018-11-05T06:05:30.643Z,19.70
2018-11-05T06:07:22.566Z,20.90
2018-11-05T06:08:22.582Z,20.90
2018-11-05T06:10:14.513Z,20.60
2018-11-05T06:11:14.503Z,20.30
2018-11-05T06:13:06.860Z,20.80
2018-11-05T06:14:06.664Z,19.80
2018-11-05T06:15:58.400Z,20.70
2018-11-05T06:16:58.365Z,20.70
2018-11-05T06:18:50.402Z,20.20
2018-11-05T06:19:50.397Z,20.60
2018-11-05T06:21:42.461Z,20.00
2018-11-05T06:22:42.433Z,19.90
2018-11-05T06:24:34.466Z,18.90
2018-11-05T06:25:34.453Z,19.10
2018-11-05T06:27:26.479Z,19.70
2018-11-05T06:28:26.492Z,20.80
2018-11-05T06:30:18.951Z,20.40
2018-11-05T06:31:18.929Z,19.70
2018-11-05T06:33:10.878Z,19.50
2018-11-05T06:34:10.844Z,19.50
2018-11-05T06:36:02.902Z,19.60
2018-11-05T06:37:02.886Z,19.40
2018-11-05T06:38:54.933Z,18.60
2018-11-05T06:39:54.918Z,18.90
2018-11-05T06:41:47.003Z,19.40
2018-11-05T06:42:46.950Z,19.10
2018-11-05T06:44:38.949Z,18.50
2018-11-05T06:45:38.884Z,19.20
2018-11-05T06:47:30.800Z,20.20
2018-11-05T06:48:30.805Z,19.40
2018-11-05T06:50:22.750Z,20.20
2018-11-05T06:51:22.736Z,20.00
2018-11-05T06:53:14.682Z,21.10
2018-11-05T06:54:14.688Z,20.80
2018-11-05T06:56:06.629Z,20.10
2018-11-05T06:57:06.620Z,20.10
2018-11-05T06:58:58.552Z,19.90
2018-11-05T06:59:58.542Z,20.10
2018-11-05T07:01:50.450Z,20.30
2018-11-05T07:02:50.454Z,19.90
2018-11-05T07:04:42.394Z,20.10
2018-11-05T07:05:42.423Z,20.70
2018-11-05T07:07:34.321Z,19.10
2018-11-05T07:08:34.319Z,20.70
2018-11-05T07:10:26.276Z,19.80
2018-11-05T07:11:26.374Z,20.00
2018-11-05T07:13:18.167Z,19.70
2018-11-05T07:14:18.178Z,20.40
2018-11-05T07:16:10.133Z,19.10
2018-11-05T07:17:10.119Z,19.20
2018-11-05T07:19:02.319Z,19.30
2018-11-05T07:20:02.036Z,18.40
2018-11-05T07:21:53.945Z,18.80
2018-11-05T07:22:53.956Z,18.80
2018-11-05T07:24:45.883Z,18.20
2018-11-05T07:25:45.869Z,18.20
2018-11-05T07:27:37.834Z,18.10
2018-11-05T07:28:37.799Z,18.20
2018-11-05T07:30:29.735Z,18.20
2018-11-05T07:31:29.722Z,18.00
2018-11-05T07:33:21.773Z,18.10
2018-11-05T07:34:21.776Z,18.80
2018-11-05T07:36:13.624Z,17.90
2018-11-05T07:37:13.624Z,18.50
2018-11-05T07:39:05.641Z,17.90
2018-11-05T07:40:05.645Z,18.40
2018-11-05T07:41:57.587Z,17.30
2018-11-05T07:42:57.588Z,18.00
2018-11-05T07:44:49.621Z,18.80
2018-11-05T07:45:49.611Z,18.10
2018-11-05T07:47:41.638Z,18.60
2018-11-05T07:48:41.644Z,19.50
2018-11-05T07:50:33.573Z,18.70
2018-11-05T07:51:33.561Z,19.40
2018-11-05T07:53:25.504Z,18.80
2018-11-05T07:54:25.513Z,19.30
2018-11-05T07:56:17.529Z,19.00
2018-11-05T07:57:17.444Z,18.80
2018-11-05T07:59:09.364Z,18.80
2018-11-05T08:00:09.399Z,18.30
2018-11-05T08:02:01.338Z,19.20
2018-11-05T08:03:01.412Z,19.00
2018-11-05T08:04:53.265Z,18.90
2018-11-05T08:05:53.256Z,20.00
2018-11-05T08:07:45.285Z,19.00
2018-11-05T08:08:45.277Z,19.00
2018-11-05T08:10:37.190Z,19.30
2018-11-05T08:11:37.207Z,18.60
2018-11-05T08:13:29.202Z,18.50
2018-11-05T08:14:29.231Z,17.60
2018-11-05T08:16:21.166Z,18.90
2018-11-05T08:17:21.178Z,18.30
2018-11-05T08:19:13.109Z,17.80
2018-11-05T08:20:13.095Z,17.80
2018-11-05T08:22:05.031Z,18.10
2018-11-05T08:23:05.041Z,18.00
2018-11-05T08:24:56.995Z,17.60
2018-11-05T08:25:56.987Z,18.90
2018-11-05T08:27:49.006Z,18.10
2018-11-05T08:28:49.013Z,17.60
2018-11-05T08:30:40.955Z,17.60
2018-11-05T08:31:40.937Z,17.90
2018-11-05T08:33:32.868Z,17.70
2018-11-05T08:34:32.876Z,18.90
2018-11-05T08:36:24.832Z,18.40
2018-11-05T08:37:24.821Z,17.60
2018-11-05T08:39:16.765Z,18.90
2018-11-05T08:40:16.845Z,18.00
2018-11-05T08:42:08.680Z,18.80
2018-11-05T08:43:08.716Z,18.70
2018-11-05T08:45:01.134Z,18.90
2018-11-05T08:46:01.127Z,20.30
2018-11-05T08:47:53.050Z,19.50
2018-11-05T08:48:53.058Z,20.30
2018-11-05T08:50:45.071Z,18.50
2018-11-05T08:51:45.342Z,19.70
2018-11-05T08:53:36.930Z,19.10
2018-11-05T08:54:36.943Z,20.00
2018-11-05T08:56:28.852Z,19.70
2018-11-05T08:57:28.867Z,19.00
2018-11-05T08:59:20.790Z,20.10
2018-11-05T09:00:20.805Z,19.70
2018-11-05T09:02:12.742Z,19.20
2018-11-05T09:03:12.733Z,19.60
2018-11-05T09:05:04.679Z,19.90
2018-11-05T09:06:04.665Z,19.60
2018-11-05T09:07:56.606Z,19.80
2018-11-05T09:08:56.606Z,19.70
2018-11-05T09:10:48.903Z,19.30
2018-11-05T09:11:48.559Z,19.50
2018-11-05T09:13:40.497Z,18.70
2018-11-05T09:14:40.509Z,19.10
2018-11-05T09:16:32.435Z,18.60
2018-11-05T09:17:32.443Z,19.30
2018-11-05T09:19:24.381Z,19.00
2018-11-05T09:20:24.381Z,18.70
2018-11-05T09:22:16.315Z,18.40
2018-11-05T09:23:16.315Z,19.00
2018-11-05T09:25:08.264Z,19.90
2018-11-05T09:26:08.250Z,18.70
2018-11-05T09:28:00.240Z,19.60
2018-11-05T09:29:00.185Z,20.10
2018-11-05T09:30:52.138Z,19.30
2018-11-05T09:31:52.121Z,19.50
2018-11-05T09:33:44.031Z,19.10
2018-11-05T09:34:44.040Z,18.80
2018-11-05T09:36:35.977Z,20.00
2018-11-05T09:37:35.968Z,19.30
2018-11-05T09:39:27.888Z,19.10
2018-11-05T09:40:27.899Z,18.20
2018-11-05T09:42:19.837Z,19.10
2018-11-05T09:43:19.832Z,19.60
2018-11-05T09:45:11.771Z,19.40
2018-11-05T09:46:11.783Z,19.20
2018-11-05T09:48:03.727Z,19.00
2018-11-05T09:49:03.722Z,18.30
2018-11-05T09:50:55.657Z,19.60
2018-11-05T09:51:55.641Z,19.00
2018-11-05T09:53:47.591Z,18.90
2018-11-05T09:54:47.593Z,19.80
2018-11-05T09:56:39.538Z,19.00
2018-11-05T09:57:39.536Z,19.50
2018-11-05T09:59:31.469Z,19.90
2018-11-05T10:00:31.484Z,19.90
2018-11-05T10:02:23.419Z,20.20
2018-11-05T10:03:23.612Z,19.90
2018-11-05T10:05:15.494Z,19.50
2018-11-05T10:06:15.349Z,20.40
2018-11-05T10:08:07.308Z,22.00
2018-11-05T10:09:07.295Z,21.60
2018-11-05T10:10:59.315Z,21.40
2018-11-05T10:11:59.236Z,21.80
2018-11-05T10:13:51.160Z,22.00
2018-11-05T10:14:51.177Z,21.30
2018-11-05T10:16:43.110Z,21.40
2018-11-05T10:17:43.103Z,20.20
2018-11-05T10:19:35.034Z,20.60
2018-11-05T10:20:35.032Z,20.40
2018-11-05T10:22:26.967Z,19.80
2018-11-05T10:23:26.963Z,19.90
2018-11-05T10:25:19.074Z,19.30
2018-11-05T10:26:18.968Z,19.40
2018-11-05T10:28:10.833Z,19.30
2018-11-05T10:29:10.819Z,20.30
2018-11-05T10:31:02.769Z,18.90
2018-11-05T10:32:02.756Z,19.20
2018-11-05T10:33:54.669Z,20.20
2018-11-05T10:34:54.680Z,20.90
2018-11-05T10:36:46.627Z,21.10
2018-11-05T10:37:46.622Z,20.60
2018-11-05T10:39:38.538Z,21.30
2018-11-05T10:40:38.546Z,20.40
2018-11-05T10:42:30.485Z,20.40
2018-11-05T10:43:30.472Z,21.10
2018-11-05T10:45:22.409Z,19.00
2018-11-05T10:46:22.524Z,20.30
2018-11-05T10:48:14.362Z,19.80
2018-11-05T10:49:14.355Z,19.90
2018-11-05T10:51:06.425Z,20.70
2018-11-05T10:52:06.518Z,21.10
2018-11-05T10:53:58.231Z,20.30
2018-11-05T10:54:58.240Z,20.10
2018-11-05T10:56:50.215Z,19.00
2018-11-05T10:57:50.181Z,19.80
2018-11-05T10:59:42.131Z,19.10
2018-11-05T11:00:42.148Z,19.10
2018-11-05T11:02:34.574Z,19.70
2018-11-05T11:03:34.561Z,20.20
2018-11-05T11:05:26.486Z,21.30
2018-11-05T11:06:26.495Z,20.60
2018-11-05T11:08:18.446Z,20.00
2018-11-05T11:09:18.433Z,20.40
2018-11-05T11:11:10.372Z,21.10
2018-11-05T11:12:10.360Z,21.10
2018-11-05T11:14:02.294Z,20.70
2018-11-05T11:15:02.315Z,20.60
2018-11-05T11:16:54.258Z,20.10
2018-11-05T11:17:54.251Z,20.20
2018-11-05T11:19:46.199Z,19.90
2018-11-05T11:20:46.193Z,19.80
2018-11-05T11:22:38.157Z,19.70
2018-11-05T11:23:38.151Z,20.40
2018-11-05T11:25:30.089Z,19.70
2018-11-05T11:26:30.107Z,20.50
2018-11-05T11:28:22.252Z,20.50
2018-11-05T11:29:22.161Z,20.10
2018-11-05T11:31:13.976Z,21.00
2018-11-05T11:32:13.988Z,19.90
2018-11-05T11:34:05.933Z,21.00
2018-11-05T11:35:05.920Z,20.60
2018-11-05T11:36:57.879Z,20.10
2018-11-05T11:37:57.867Z,19.80
2018-11-05T11:39:49.786Z,19.50
2018-11-05T11:40:49.792Z,19.50
2018-11-05T11:42:41.738Z,19.70
2018-11-05T11:43:41.766Z,20.30
2018-11-05T11:45:33.699Z,20.20
2018-11-05T11:46:33.663Z,19.30
2018-11-05T11:48:25.707Z,19.20
2018-11-05T11:49:25.670Z,19.60
2018-11-05T11:51:17.568Z,18.80
2018-11-05T11:52:17.585Z,19.70
2018-11-05T11:54:10.067Z,18.60
2018-11-05T11:55:10.012Z,18.70
2018-11-05T11:57:02.008Z,17.90
2018-11-05T11:58:01.963Z,19.30
2018-11-05T11:59:53.856Z,19.60
2018-11-05T12:00:53.869Z,20.30
2018-11-05T12:02:45.860Z,20.30
2018-11-05T12:03:45.883Z,20.40
2018-11-05T12:05:37.791Z,19.40
2018-11-05T12:06:37.744Z,19.70
2018-11-05T12:08:29.764Z,18.90
2018-11-05T12:09:29.642Z,18.90
2018-11-05T12:11:21.563Z,19.30
2018-11-05T12:12:21.564Z,19.50
2018-11-05T12:14:13.573Z,19.50
2018-11-05T12:15:13.513Z,19.20
2018-11-05T12:17:05.451Z,19.50
2018-11-05T12:18:05.447Z,20.20
2018-11-05T12:19:57.380Z,18.90
2018-11-05T12:20:57.392Z,19.20
2018-11-05T12:22:49.545Z,18.80
2018-11-05T12:23:49.529Z,19.50
2018-11-05T12:25:41.467Z,19.90
2018-11-05T12:26:41.520Z,19.50
2018-11-05T12:28:33.423Z,21.00
2018-11-05T12:29:33.421Z,21.40
2018-11-05T12:31:25.332Z,20.40
2018-11-05T12:32:25.340Z,20.70
2018-11-05T12:34:17.497Z,20.00
2018-11-05T12:35:17.492Z,20.80
2018-11-05T12:37:09.445Z,20.70
2018-11-05T12:38:09.424Z,19.50
2018-11-05T12:40:01.373Z,20.30
2018-11-05T12:41:01.381Z,20.30
2018-11-05T12:42:53.332Z,20.10
2018-11-05T12:43:53.320Z,19.20
2018-11-05T12:45:45.246Z,21.00
2018-11-05T12:46:45.263Z,21.00
2018-11-05T12:48:37.226Z,21.00
2018-11-05T12:49:37.187Z,21.60
2018-11-05T12:51:29.111Z,20.40
2018-11-05T12:52:29.122Z,20.20
2018-11-05T12:54:21.096Z,19.80
2018-11-05T12:55:21.101Z,21.70
2018-11-05T12:57:13.039Z,21.10
2018-11-05T12:58:13.040Z,21.10
2018-11-05T13:00:04.965Z,20.80
2018-11-05T13:01:04.970Z,20.80
2018-11-05T13:02:56.924Z,20.10
2018-11-05T13:03:56.915Z,21.20
2018-11-05T13:05:48.841Z,20.60
2018-11-05T13:06:48.956Z,20.00
2018-11-05T13:08:40.801Z,21.90
2018-11-05T13:09:40.786Z,24.40
2018-11-05T13:11:32.913Z,25.10
2018-11-05T13:12:32.922Z,25.50
2018-11-05T13:14:24.873Z,21.60
2018-11-05T13:15:25.018Z,19.90
2018-11-05T13:17:16.828Z,19.30
2018-11-05T13:18:16.817Z,18.40
2018-11-05T13:20:09.312Z,19.80
2018-11-05T13:21:09.273Z,19.40
2018-11-05T13:23:01.227Z,19.60
2018-11-05T13:24:01.244Z,18.70
2018-11-05T13:25:53.147Z,19.10
2018-11-05T13:26:53.170Z,18.60
2018-11-05T13:27:53.178Z,17.70
2018-11-05T13:28:53.192Z,17.70
2018-11-05T13:29:53.236Z,18.50
2018-11-05T13:30:53.228Z,18.00
2018-11-05T13:31:53.257Z,17.70
2018-11-05T13:32:53.269Z,17.10
2018-11-05T13:33:53.286Z,17.70
2018-11-05T13:34:53.302Z,17.10
2018-11-05T13:35:53.321Z,17.70
2018-11-05T13:36:53.484Z,18.20
2018-11-05T13:37:53.981Z,17.80
2018-11-05T13:38:53.373Z,17.40
2018-11-05T13:39:53.402Z,18.00
2018-11-05T13:40:53.413Z,18.10
2018-11-05T13:41:53.428Z,17.30
2018-11-05T13:42:53.442Z,17.60
2018-11-05T13:43:53.492Z,17.60
2018-11-05T13:44:53.613Z,17.90
2018-11-05T13:45:53.853Z,18.10
2018-11-05T13:46:53.816Z,17.80
2018-11-05T13:47:54.499Z,17.70
2018-11-05T13:48:53.951Z,17.90
2018-11-05T13:49:53.722Z,17.70
2018-11-05T13:50:53.589Z,18.80
2018-11-05T13:51:53.691Z,18.90
2018-11-05T13:52:53.625Z,18.50
2018-11-05T13:53:53.640Z,18.90
2018-11-05T13:54:53.871Z,19.30
2018-11-05T13:55:53.692Z,19.60
2018-11-05T13:56:53.695Z,19.70
2018-11-05T13:57:53.726Z,20.00
2018-11-05T13:58:53.730Z,20.00
2018-11-05T13:59:53.757Z,19.60
2018-11-05T14:00:53.792Z,19.80
2018-11-05T14:01:53.786Z,20.20
2018-11-05T14:02:53.801Z,19.60
2018-11-05T14:03:53.821Z,18.60
2018-11-05T14:04:53.833Z,18.00
2018-11-05T14:05:53.878Z,19.40
2018-11-05T14:06:53.875Z,19.30
2018-11-05T14:07:53.894Z,19.60
2018-11-05T14:08:53.908Z,19.70
2018-11-05T14:09:53.934Z,20.10
2018-11-05T14:10:53.979Z,19.40
2018-11-05T14:11:53.962Z,20.30
2018-11-05T14:12:54.091Z,20.00
2018-11-05T14:13:54.024Z,19.00
2018-11-05T14:14:54.055Z,20.70
2018-11-05T14:15:54.042Z,19.90
2018-11-05T14:16:54.063Z,20.50
2018-11-05T14:17:54.086Z,20.30
2018-11-05T14:18:54.090Z,20.30
2018-11-05T14:19:54.105Z,19.00
2018-11-05T14:20:54.160Z,19.60
2018-11-05T14:21:54.140Z,20.80
2018-11-05T14:22:54.159Z,20.20
2018-11-05T14:23:54.177Z,20.60
2018-11-05T14:24:54.197Z,20.40
2018-11-05T14:25:54.234Z,20.10
2018-11-05T14:26:54.243Z,19.10
2018-11-05T14:27:54.438Z,20.70
2018-11-05T14:28:54.603Z,20.50
2018-11-05T14:29:54.723Z,19.80
2018-11-05T14:30:54.342Z,19.80
2018-11-05T14:31:54.343Z,20.00
2018-11-05T14:32:54.347Z,19.00
2018-11-05T14:33:54.365Z,18.80
2018-11-05T14:34:54.381Z,18.90
2018-11-05T14:35:54.444Z,18.70
2018-11-05T14:36:54.448Z,18.70
2018-11-05T14:37:54.441Z,20.20
2018-11-05T14:38:54.453Z,19.10
2018-11-05T14:39:54.470Z,18.90
2018-11-05T14:40:54.495Z,20.10
2018-11-05T14:41:54.500Z,20.40
2018-11-05T14:42:54.549Z,19.00
2018-11-05T14:43:54.554Z,19.20
2018-11-05T14:44:54.556Z,19.70
2018-11-05T14:45:54.581Z,18.70
2018-11-05T14:46:54.590Z,19.10
2018-11-05T14:47:54.615Z,19.20
2018-11-05T14:48:54.626Z,20.20
2018-11-05T14:49:54.652Z,19.90
2018-11-05T14:50:54.678Z,19.40
2018-11-05T14:51:54.684Z,19.50
2018-11-05T14:52:54.698Z,18.40
2018-11-05T14:53:54.715Z,19.40
2018-11-05T14:54:54.739Z,18.40
2018-11-05T14:55:54.755Z,19.10
2018-11-05T14:56:54.766Z,17.90
2018-11-05T14:57:54.786Z,19.20
2018-11-05T14:58:54.802Z,18.70
2018-11-05T14:59:54.825Z,18.90
2018-11-05T15:00:54.838Z,18.00
2018-11-05T15:01:54.855Z,18.50
2018-11-05T15:02:54.913Z,19.00
2018-11-05T15:03:54.893Z,18.70
2018-11-05T15:04:54.918Z,19.10
2018-11-05T15:05:54.924Z,19.10
2018-11-05T15:06:54.944Z,19.40
2018-11-05T15:07:54.966Z,18.30
2018-11-05T15:08:54.979Z,18.20
2018-11-05T15:09:54.995Z,19.10
2018-11-05T15:10:55.015Z,19.00
2018-11-05T15:11:55.030Z,18.80
2018-11-05T15:12:55.047Z,19.00
2018-11-05T15:13:55.066Z,19.00
2018-11-05T15:14:55.084Z,18.30
2018-11-05T15:15:55.105Z,19.20
2018-11-05T15:16:55.123Z,18.30
2018-11-05T15:17:55.139Z,18.90
2018-11-05T15:18:55.526Z,18.00
2018-11-05T15:19:55.654Z,17.70
2018-11-05T15:20:55.188Z,17.80
2018-11-05T15:21:55.206Z,18.30
2018-11-05T15:22:55.228Z,17.90
2018-11-05T15:23:55.240Z,18.10
2018-11-05T15:24:55.254Z,17.40
2018-11-05T15:25:55.346Z,17.70
2018-11-05T15:26:55.411Z,17.90
2018-11-05T15:27:55.315Z,17.80
2018-11-05T15:28:55.330Z,17.90
2018-11-05T15:29:55.343Z,17.80
2018-11-05T15:30:55.360Z,17.90
2018-11-05T15:31:55.378Z,18.10
2018-11-05T15:32:55.394Z,17.50
2018-11-05T15:33:55.468Z,17.40
2018-11-05T15:34:55.440Z,18.20
2018-11-05T15:35:55.445Z,18.30
2018-11-05T15:36:55.464Z,18.10
2018-11-05T15:37:55.480Z,18.00
2018-11-05T15:38:55.498Z,18.20
2018-11-05T15:39:55.516Z,17.40
2018-11-05T15:40:55.532Z,17.90
2018-11-05T15:41:55.547Z,18.50
2018-11-05T15:42:55.572Z,17.90
2018-11-05T15:43:55.585Z,17.50
2018-11-05T15:44:55.613Z,18.20
2018-11-05T15:45:55.616Z,18.70
2018-11-05T15:46:55.633Z,18.20
2018-11-05T15:47:55.651Z,18.20
2018-11-05T15:48:55.666Z,17.20
2018-11-05T15:49:55.689Z,17.40
2018-11-05T15:50:55.752Z,17.40
2018-11-05T15:51:56.001Z,17.00
2018-11-05T15:52:56.080Z,18.20
2018-11-05T15:53:55.817Z,18.30
2018-11-05T15:54:55.769Z,17.20
2018-11-05T15:55:55.785Z,17.50
2018-11-05T15:56:55.802Z,17.80
2018-11-05T15:57:55.822Z,17.50
2018-11-05T15:58:55.840Z,16.90
2018-11-05T15:59:55.852Z,18.10
2018-11-05T16:00:55.868Z,16.90
2018-11-05T16:01:55.887Z,18.30
2018-11-05T16:02:55.901Z,18.10
2018-11-05T16:03:55.919Z,18.10
2018-11-05T16:04:55.936Z,17.90
2018-11-05T16:05:55.952Z,17.50
2018-11-05T16:06:55.969Z,18.80
2018-11-05T16:07:55.984Z,18.20
2018-11-05T16:08:56.000Z,18.50
2018-11-05T16:09:56.020Z,18.40
2018-11-05T16:10:56.045Z,17.80
2018-11-05T16:11:56.050Z,17.80
2018-11-05T16:12:56.063Z,18.70
2018-11-05T16:13:56.084Z,17.20
2018-11-05T16:14:56.194Z,17.70
2018-11-05T16:15:56.118Z,17.40
2018-11-05T16:16:56.133Z,17.10
2018-11-05T16:17:56.146Z,17.80
2018-11-05T16:18:56.168Z,17.20